createdAt,value
2023-01-23T00:01:43.707Z,103445.47
2023-01-23T00:04:14.705Z,103454.19
2023-01-23T00:06:45.003Z,103449.78
2023-01-23T00:09:14.756Z,103444.66
2023-01-23T00:11:44.800Z,103448.06
2023-01-23T00:14:14.547Z,103447.41
2023-01-23T00:16:46.222Z,103450.03
2023-01-23T00:19:16.002Z,103448.06
2023-01-23T00:21:45.897Z,103450.81
2023-01-23T00:24:15.582Z,103447.28
2023-01-23T00:26:45.642Z,103460.22
2023-01-23T00:29:16.315Z,103456.81
2023-01-23T00:31:47.899Z,103461.25
2023-01-23T00:34:19.033Z,103451.72
2023-01-23T00:36:51.428Z,103457.72
2023-01-23T00:39:22.054Z,103405.41
2023-01-23T00:41:52.207Z,103456.59
2023-01-23T00:44:22.329Z,103456.59
2023-01-23T00:46:53.932Z,103460.00
2023-01-23T00:49:24.746Z,103461.81
2023-01-23T00:51:56.748Z,103454.78
2023-01-23T00:54:26.411Z,103454.53
2023-01-23T00:56:57.649Z,103455.34
2023-01-23T00:59:27.411Z,103456.13
2023-01-23T01:01:59.187Z,103405.03
2023-01-23T01:04:28.925Z,103465.22
2023-01-23T01:06:59.008Z,103466.13
2023-01-23T01:09:28.685Z,103465.22
2023-01-23T01:11:58.884Z,103462.63
2023-01-23T01:14:28.792Z,103461.72
2023-01-23T01:17:00.708Z,103467.03
2023-01-23T01:19:30.303Z,103462.50
2023-01-23T01:22:00.261Z,103479.19
2023-01-23T01:24:29.987Z,103475.78
2023-01-23T01:27:00.107Z,103463.63
2023-01-23T01:29:29.973Z,103472.47
2023-01-23T01:32:01.610Z,103478.50
2023-01-23T01:34:31.331Z,103464.44
2023-01-23T01:37:01.531Z,103471.47
2023-01-23T01:39:31.236Z,103477.47
2023-01-23T01:42:01.272Z,103451.16
2023-01-23T01:44:52.048Z,103480.09
2023-01-23T01:47:23.462Z,103480.88
2023-01-23T01:49:54.574Z,103478.16
2023-01-23T01:52:25.286Z,103478.94
2023-01-23T01:54:58.769Z,103485.06
2023-01-23T01:57:30.615Z,103481.53
2023-01-23T02:00:05.053Z,103438.88
2023-01-23T02:02:46.803Z,103490.16
2023-01-23T02:05:19.693Z,103492.69
2023-01-23T02:07:54.724Z,103492.56
2023-01-23T02:10:24.486Z,103494.50
2023-01-23T02:12:55.024Z,103501.41
2023-01-23T02:15:26.151Z,103493.47
2023-01-23T02:17:58.192Z,103494.13
2023-01-23T02:20:29.845Z,103501.63
2023-01-23T02:23:03.510Z,103503.44
2023-01-23T02:25:37.857Z,103500.28
2023-01-23T02:28:10.178Z,103501.84
2023-01-23T02:30:42.837Z,103508.66
2023-01-23T02:33:13.985Z,103508.66
2023-01-23T02:35:44.740Z,103506.06
2023-01-23T02:38:16.168Z,103509.56
2023-01-23T02:40:46.001Z,103511.28
2023-01-23T02:43:24.521Z,103511.38
2023-01-23T02:46:00.328Z,103509.69
2023-01-23T02:48:30.481Z,103506.97
2023-01-23T02:51:02.548Z,103508.66
2023-01-23T02:53:33.299Z,103506.97
2023-01-23T02:56:04.088Z,103500.84
2023-01-23T02:58:53.036Z,103497.53
2023-01-23T03:01:22.931Z,103495.84
2023-01-23T03:03:53.842Z,103501.75
2023-01-23T03:06:23.693Z,103498.22
2023-01-23T03:08:56.346Z,103504.34
2023-01-23T03:11:27.605Z,103506.97
2023-01-23T03:13:59.192Z,103507.88
2023-01-23T03:16:30.364Z,103521.72
2023-01-23T03:19:05.289Z,103515.69
2023-01-23T03:21:35.052Z,103518.31
2023-01-23T03:24:05.963Z,103521.94
2023-01-23T03:26:35.704Z,103517.41
2023-01-23T03:29:24.420Z,103527.03
2023-01-23T03:31:54.365Z,103527.72
2023-01-23T03:34:24.470Z,103522.38
2023-01-23T03:36:54.464Z,103524.06
2023-01-23T03:39:44.110Z,103528.38
2023-01-23T03:42:14.420Z,103525.66
2023-01-23T03:44:46.040Z,103533.75
2023-01-23T03:47:15.983Z,103530.19
2023-01-23T03:49:46.161Z,103526.69
2023-01-23T03:52:15.909Z,103531.25
2023-01-23T03:54:46.412Z,103538.72
2023-01-23T03:57:16.885Z,103537.59
2023-01-23T04:00:08.032Z,103531.31
2023-01-23T04:02:43.532Z,103522.84
2023-01-23T04:05:16.535Z,103537.69
2023-01-23T04:07:46.424Z,103539.25
2023-01-23T04:10:17.291Z,103543.94
2023-01-23T04:12:51.607Z,103546.31
2023-01-23T04:15:23.608Z,103546.66
2023-01-23T04:17:55.418Z,103549.69
2023-01-23T04:20:27.359Z,103542.91
2023-01-23T04:22:58.462Z,103550.06
2023-01-23T04:25:30.789Z,103545.75
2023-01-23T04:28:00.579Z,103553.56
2023-01-23T04:30:32.422Z,103552.78
2023-01-23T04:33:09.163Z,103545.84
2023-01-23T04:35:39.850Z,103546.81
2023-01-23T04:38:09.817Z,103552.66
2023-01-23T04:40:40.924Z,103554.25
2023-01-23T04:43:11.099Z,103555.97
2023-01-23T04:45:48.064Z,103548.13
2023-01-23T04:48:36.284Z,103560.50
2023-01-23T04:51:07.106Z,103563.91
2023-01-23T04:53:37.826Z,103564.81
2023-01-23T04:56:08.277Z,103561.06
2023-01-23T04:58:37.996Z,103556.75
2023-01-23T05:01:11.357Z,103562.09
2023-01-23T05:03:41.162Z,103565.50
2023-01-23T05:06:11.321Z,103569.91
2023-01-23T05:08:41.068Z,103573.31
2023-01-23T05:11:26.411Z,103574.22
2023-01-23T05:13:56.461Z,103573.19
2023-01-23T05:16:28.956Z,103574.66
2023-01-23T05:19:19.086Z,103580.09
2023-01-23T05:21:49.772Z,103581.81
2023-01-23T05:24:23.253Z,103579.88
2023-01-23T05:26:53.581Z,103582.72
2023-01-23T05:29:23.768Z,103587.94
2023-01-23T05:32:05.730Z,103589.41
2023-01-23T05:34:35.549Z,103583.41
2023-01-23T05:37:07.173Z,103589.91
2023-01-23T05:39:39.377Z,103595.34
2023-01-23T05:42:09.642Z,103588.41
2023-01-23T05:44:58.523Z,103589.31
2023-01-23T05:47:34.899Z,103593.88
2023-01-23T05:50:04.728Z,103592.28
2023-01-23T05:52:37.238Z,103593.09
2023-01-23T05:55:07.356Z,103598.41
2023-01-23T05:57:38.888Z,103602.63
2023-01-23T06:00:28.950Z,103600.91
2023-01-23T06:03:23.374Z,103597.41
2023-01-23T06:06:16.071Z,103546.66
2023-01-23T06:08:46.186Z,103602.63
2023-01-23T06:11:15.873Z,103605.22
2023-01-23T06:13:46.272Z,103611.34
2023-01-23T06:16:16.197Z,103611.47
2023-01-23T06:18:48.337Z,103614.06
2023-01-23T06:21:20.051Z,103615.66
2023-01-23T06:23:51.612Z,103614.66
2023-01-23T06:26:21.581Z,103606.03
2023-01-23T06:28:52.547Z,103613.06
2023-01-23T06:31:23.267Z,103619.97
2023-01-23T06:34:01.180Z,103617.59
2023-01-23T06:36:35.232Z,103623.88
2023-01-23T06:39:05.496Z,103637.03
2023-01-23T06:41:41.720Z,103636.91
2023-01-23T06:44:14.651Z,103634.84
2023-01-23T06:46:46.935Z,103633.94
2023-01-23T06:49:20.105Z,103634.06
2023-01-23T06:51:50.915Z,103639.38
2023-01-23T06:54:21.685Z,103649.72
2023-01-23T06:56:52.310Z,103645.19
2023-01-23T06:59:23.070Z,103650.50
2023-01-23T07:01:52.994Z,103654.81
2023-01-23T07:04:29.034Z,103658.22
2023-01-23T07:06:58.732Z,103655.72
2023-01-23T07:09:28.893Z,103660.25
2023-01-23T07:12:08.202Z,103668.34
2023-01-23T07:14:38.624Z,103670.97
2023-01-23T07:17:10.961Z,103672.88
2023-01-23T07:19:42.421Z,103672.09
2023-01-23T07:22:21.588Z,103678.38
2023-01-23T07:24:55.177Z,103675.06
2023-01-23T07:27:24.883Z,103683.16
2023-01-23T07:29:54.893Z,103684.97
2023-01-23T07:32:24.895Z,103677.13
2023-01-23T07:34:56.439Z,103684.81
2023-01-23T07:37:26.675Z,103690.84
2023-01-23T07:39:56.834Z,103689.28
2023-01-23T07:42:26.954Z,103688.38
2023-01-23T07:44:56.963Z,103683.38
2023-01-23T07:47:26.666Z,103678.16
2023-01-23T07:49:58.282Z,103680.66
2023-01-23T07:52:28.064Z,103684.19
2023-01-23T07:54:58.196Z,103673.72
2023-01-23T07:57:28.143Z,103670.09
2023-01-23T07:59:58.344Z,103683.28
2023-01-23T08:02:28.086Z,103687.81
2023-01-23T08:05:00.147Z,103685.19
2023-01-23T08:07:33.867Z,103686.91
2023-01-23T08:10:04.505Z,103688.72
2023-01-23T08:12:34.328Z,103687.81
2023-01-23T08:15:04.889Z,103681.69
2023-01-23T08:17:34.879Z,103692.38
2023-01-23T08:20:06.802Z,103691.47
2023-01-23T08:22:37.665Z,103692.50
2023-01-23T08:25:09.221Z,103681.34
2023-01-23T08:27:39.704Z,103675.22
2023-01-23T08:30:13.581Z,103683.97
2023-01-23T08:32:43.329Z,103684.06
2023-01-23T08:37:55.801Z,103688.75
2023-01-23T08:40:26.314Z,103681.19
2023-01-23T08:42:57.452Z,103683.78
2023-01-23T08:45:29.981Z,103694.34
2023-01-23T08:48:01.363Z,103696.06
2023-01-23T08:50:33.494Z,103688.56
2023-01-23T08:53:04.709Z,103694.72
2023-01-23T08:55:36.493Z,103705.94
2023-01-23T08:58:07.012Z,103707.53
2023-01-23T09:00:37.842Z,103719.78
2023-01-23T09:03:09.314Z,103718.88
2023-01-23T09:05:40.568Z,103714.34
2023-01-23T09:08:11.884Z,103722.97
2023-01-23T09:10:43.309Z,103729.75
2023-01-23T09:13:13.494Z,103728.72
2023-01-23T09:15:43.683Z,103734.50
2023-01-23T09:18:13.542Z,103730.75
2023-01-23T09:20:44.741Z,103733.34
2023-01-23T09:23:16.955Z,103732.88
2023-01-23T09:25:47.583Z,103732.97
2023-01-23T09:28:17.658Z,103729.34
2023-01-23T09:30:49.156Z,103730.38
2023-01-23T09:33:23.994Z,103732.44
2023-01-23T09:35:54.994Z,103728.34
2023-01-23T09:38:27.755Z,103736.56
2023-01-23T09:40:59.922Z,103736.19
2023-01-23T09:43:38.173Z,103729.69
2023-01-23T09:46:16.666Z,103708.53
2023-01-23T09:48:48.190Z,103745.50
2023-01-23T09:51:24.505Z,103742.00
2023-01-23T09:53:59.199Z,103734.69
2023-01-23T09:56:31.821Z,103736.63
2023-01-23T09:59:13.812Z,103745.13
2023-01-23T10:01:44.365Z,103738.47
2023-01-23T10:04:17.142Z,103738.31
2023-01-23T10:07:04.736Z,103726.16
2023-01-23T10:09:46.730Z,103731.53
2023-01-23T10:12:20.162Z,103725.41
2023-01-23T10:15:01.426Z,103723.56
2023-01-23T10:17:35.843Z,103723.44
2023-01-23T10:20:25.484Z,103727.75
2023-01-23T10:23:01.125Z,103719.13
2023-01-23T10:25:35.457Z,103721.75
2023-01-23T10:28:18.675Z,103721.75
2023-01-23T10:30:50.023Z,103725.63
2023-01-23T10:33:21.524Z,103730.06
2023-01-23T10:35:53.483Z,103732.03
2023-01-23T10:38:28.124Z,103730.53
2023-01-23T10:41:23.467Z,103727.28
2023-01-23T10:43:54.715Z,103724.00
2023-01-23T10:46:37.991Z,103722.38
2023-01-23T10:49:09.026Z,103729.31
2023-01-23T10:51:49.054Z,103731.44
2023-01-23T10:54:33.771Z,103728.72
2023-01-23T10:57:06.058Z,103723.50
2023-01-23T10:59:41.607Z,103712.03
2023-01-23T11:02:26.191Z,103714.06
2023-01-23T11:04:57.225Z,103715.25
2023-01-23T11:07:30.910Z,103718.50
2023-01-23T11:10:01.721Z,103716.84
2023-01-23T11:12:34.993Z,103716.16
2023-01-23T11:15:21.884Z,103718.66
2023-01-23T11:17:52.468Z,103720.47
2023-01-23T11:20:25.138Z,103730.59
2023-01-23T11:23:05.988Z,103730.59
2023-01-23T11:25:38.362Z,103730.22
2023-01-23T11:28:23.824Z,103733.63
2023-01-23T11:31:12.399Z,103727.63
2023-01-23T11:33:44.783Z,103734.66
2023-01-23T11:36:30.517Z,103733.63
2023-01-23T11:39:03.439Z,103720.69
2023-01-23T11:41:35.661Z,103714.88
2023-01-23T11:44:11.322Z,103715.00
2023-01-23T11:46:52.509Z,103723.72
2023-01-23T11:49:31.467Z,103720.56
2023-01-23T11:52:12.328Z,103723.31
2023-01-23T11:54:52.146Z,103720.56
2023-01-23T11:57:31.399Z,103725.13
2023-01-23T12:00:14.856Z,103728.09
2023-01-23T12:03:03.686Z,103731.06
2023-01-23T12:05:46.256Z,103725.97
2023-01-23T12:08:21.648Z,103733.75
2023-01-23T12:10:55.531Z,103734.53
2023-01-23T12:13:40.425Z,103734.00
2023-01-23T12:16:19.542Z,103739.88
2023-01-23T12:18:56.339Z,103735.94
2023-01-23T12:21:32.316Z,103736.50
2023-01-23T12:24:11.196Z,103734.59
2023-01-23T12:26:45.756Z,103730.97
2023-01-23T12:29:32.598Z,103731.28
2023-01-23T12:32:29.299Z,103725.59
2023-01-23T12:35:06.987Z,103724.69
2023-01-23T12:37:43.615Z,103723.66
2023-01-23T12:40:15.489Z,103721.06
2023-01-23T12:42:49.656Z,103725.75
2023-01-23T12:45:23.684Z,103728.47
2023-01-23T12:48:00.978Z,103729.09
2023-01-23T12:50:37.388Z,103737.75
2023-01-23T12:53:08.998Z,103733.44
2023-01-23T12:55:41.706Z,103731.50
2023-01-23T12:58:14.428Z,103729.69
2023-01-23T13:01:03.264Z,103730.22
2023-01-23T13:03:49.815Z,103732.31
2023-01-23T13:06:28.704Z,103735.34
2023-01-23T13:09:16.596Z,103736.78
2023-01-23T13:12:22.161Z,103735.75
2023-01-23T13:15:30.868Z,103740.19
2023-01-23T13:17:45.430Z,103743.84
2023-01-23T13:20:42.174Z,103742.38
2023-01-23T13:23:26.050Z,103738.63
2023-01-23T13:26:26.884Z,103741.78
2023-01-23T13:28:57.766Z,103745.56
2023-01-23T13:31:29.311Z,103741.34
2023-01-23T13:34:14.616Z,103742.38
2023-01-23T13:36:46.795Z,103742.25
2023-01-23T13:39:24.006Z,103743.16
2023-01-23T13:42:14.755Z,103745.56
2023-01-23T13:44:59.798Z,103736.31
2023-01-23T14:22:12.255Z,103736.19
2023-01-23T14:24:45.879Z,103742.22
2023-01-23T14:27:29.455Z,103738.38
2023-01-23T14:30:02.396Z,103741.66
2023-01-23T14:32:34.886Z,103737.00
2023-01-23T14:35:17.516Z,103739.59
2023-01-23T14:37:49.339Z,103740.28
2023-01-23T14:40:27.706Z,103752.28
2023-01-23T14:43:03.222Z,103747.75
2023-01-23T14:45:34.082Z,103746.94
2023-01-23T14:48:07.459Z,103738.88
2023-01-23T14:50:38.653Z,103741.63
2023-01-23T14:53:13.409Z,103744.34
2023-01-23T14:55:46.993Z,103751.53
2023-01-23T14:58:23.853Z,103743.44
2023-01-23T15:00:55.267Z,103751.03
2023-01-23T15:03:37.904Z,103750.09
2023-01-23T15:06:10.688Z,103754.28
2023-01-23T15:08:40.758Z,103751.78
2023-01-23T15:11:13.636Z,103754.06
2023-01-23T15:13:47.915Z,103746.88
2023-01-23T15:16:21.189Z,103741.81
2023-01-23T15:18:56.372Z,103745.31
2023-01-23T15:21:28.702Z,103745.44
2023-01-23T15:24:05.157Z,103743.63
2023-01-23T15:26:36.604Z,103748.47
2023-01-23T15:29:19.185Z,103748.25
2023-01-23T15:31:51.661Z,103738.81
2023-01-23T15:34:24.753Z,103751.09
2023-01-23T15:36:57.110Z,103745.06
2023-01-23T15:39:29.090Z,103737.91
2023-01-23T15:42:00.742Z,103741.06
2023-01-23T15:44:32.681Z,103734.72
2023-01-23T15:47:04.216Z,103739.34
2023-01-23T15:49:35.348Z,103741.44
2023-01-23T15:52:21.047Z,103737.13
2023-01-23T15:54:51.657Z,103745.50
2023-01-23T15:57:21.722Z,103747.97
2023-01-23T15:59:52.909Z,103746.97
2023-01-23T16:02:33.205Z,103749.78
2023-01-23T16:05:04.419Z,103756.97
2023-01-23T16:07:35.947Z,103751.75
2023-01-23T16:10:06.509Z,103748.25
2023-01-23T16:12:39.061Z,103751.63
2023-01-23T16:15:15.955Z,103756.59
2023-01-23T16:17:46.036Z,103748.88
2023-01-23T16:20:16.542Z,103753.09
2023-01-23T16:22:47.767Z,103764.31
2023-01-23T16:25:20.156Z,103770.31
2023-01-23T16:27:50.274Z,103768.38
2023-01-23T16:30:22.672Z,103761.44
2023-01-23T16:32:53.020Z,103762.25
2023-01-23T16:35:23.588Z,103765.75
2023-01-23T16:37:54.820Z,103760.53
2023-01-23T16:40:25.943Z,103760.31
2023-01-23T16:42:57.408Z,103756.53
2023-01-23T16:45:29.260Z,103759.03
2023-01-23T16:47:59.331Z,103755.72
2023-01-23T16:50:33.685Z,103746.19
2023-01-23T16:53:04.939Z,103763.16
2023-01-23T16:55:36.709Z,103758.72
2023-01-23T16:58:07.953Z,103754.31
2023-01-23T17:00:39.293Z,103760.16
2023-01-23T17:03:10.377Z,103760.16
2023-01-23T17:05:40.040Z,103753.13
2023-01-23T17:08:17.711Z,103751.56
2023-01-23T17:10:48.420Z,103754.03
2023-01-23T17:13:19.977Z,103752.34
2023-01-23T17:15:53.055Z,103760.16
2023-01-23T17:18:24.287Z,103764.25
2023-01-23T17:20:55.719Z,103759.25
2023-01-23T17:23:26.415Z,103763.25
2023-01-23T17:26:00.707Z,103773.84
2023-01-23T17:28:31.350Z,103778.13
2023-01-23T17:31:02.795Z,103770.97
2023-01-23T17:33:33.537Z,103777.91
2023-01-23T17:36:04.947Z,103765.66
2023-01-23T17:38:36.128Z,103784.28
2023-01-23T17:41:06.904Z,103778.81
2023-01-23T17:43:37.089Z,103775.97
2023-01-23T17:46:08.834Z,103785.50
2023-01-23T17:48:41.740Z,103788.09
2023-01-23T17:51:16.363Z,103785.63
2023-01-23T17:53:52.036Z,103772.97
2023-01-23T17:56:22.740Z,103783.53
2023-01-23T17:58:52.775Z,103784.44
2023-01-23T18:01:25.239Z,103789.00
2023-01-23T18:03:55.431Z,103792.38
2023-01-23T18:06:25.236Z,103792.03
2023-01-23T18:08:55.349Z,103798.03
2023-01-23T18:11:27.566Z,103797.59
2023-01-23T18:14:02.401Z,103798.66
2023-01-23T18:16:36.142Z,103791.47
2023-01-23T18:19:13.066Z,103785.34
2023-01-23T18:21:42.973Z,103794.88
2023-01-23T18:24:20.410Z,103794.75
2023-01-23T18:26:54.806Z,103792.03
2023-01-23T18:29:29.578Z,103796.19
2023-01-23T18:32:19.195Z,103787.47
2023-01-23T18:34:52.720Z,103790.22
2023-01-23T18:37:29.065Z,103783.81
2023-01-23T18:40:26.322Z,103792.44
2023-01-23T18:43:00.261Z,103788.03
2023-01-23T18:45:31.108Z,103791.91
2023-01-23T18:48:02.649Z,103793.84
2023-01-23T18:50:33.017Z,103798.03
2023-01-23T18:53:09.215Z,103792.94
2023-01-23T18:55:40.345Z,103793.59
2023-01-23T18:58:24.822Z,103801.41
2023-01-23T19:00:59.737Z,103805.50
2023-01-23T19:03:35.396Z,103808.34
2023-01-23T19:06:13.267Z,103794.16
2023-01-23T19:08:43.440Z,103782.66
2023-01-23T19:11:21.076Z,103792.19
2023-01-23T19:13:56.783Z,103796.88
2023-01-23T19:16:30.971Z,103797.91
2023-01-23T19:19:15.807Z,103803.28
2023-01-23T19:21:47.754Z,103801.59
2023-01-23T19:24:21.956Z,103797.91
2023-01-23T19:26:52.618Z,103788.88
2023-01-23T19:29:23.587Z,103796.06
2023-01-23T19:32:09.222Z,103783.53
2023-01-23T19:34:40.721Z,103788.38
2023-01-23T19:37:10.756Z,103788.25
2023-01-23T19:39:40.560Z,103784.72
2023-01-23T19:42:14.399Z,103796.88
2023-01-23T19:44:44.820Z,103797.78
2023-01-23T19:47:14.952Z,103797.06
2023-01-23T19:49:46.030Z,103802.56
2023-01-23T19:52:17.068Z,103807.34
2023-01-23T19:54:46.796Z,103802.25
2023-01-23T19:57:16.848Z,103803.06
2023-01-23T19:59:46.647Z,103808.97
2023-01-23T20:02:19.180Z,103804.03
2023-01-23T20:04:50.610Z,103807.69
2023-01-23T20:07:20.648Z,103805.19
2023-01-23T20:09:50.375Z,103796.69
2023-01-23T20:12:20.315Z,103806.50
2023-01-23T20:14:49.941Z,103807.94
2023-01-23T20:17:20.066Z,103808.97
2023-01-23T20:19:51.107Z,103811.59
2023-01-23T20:22:21.278Z,103811.22
2023-01-23T20:24:51.052Z,103816.94
2023-01-23T20:27:21.357Z,103825.84
2023-01-23T20:29:52.106Z,103823.22
2023-01-23T20:32:24.785Z,103808.59
2023-01-23T20:34:59.145Z,103815.34
2023-01-23T20:37:30.066Z,103813.63
2023-01-23T20:39:59.707Z,103801.50
2023-01-23T20:42:31.056Z,103807.41
2023-01-23T20:45:02.048Z,103810.91
2023-01-23T20:47:33.209Z,103811.03
2023-01-23T20:50:06.777Z,103811.81
2023-01-23T20:52:55.811Z,103809.22
2023-01-23T20:55:28.477Z,103805.31
2023-01-23T20:58:18.505Z,103803.50
2023-01-23T21:00:49.065Z,103798.16
2023-01-23T21:03:21.396Z,103798.03
2023-01-23T21:05:54.190Z,103797.25
2023-01-23T21:08:25.361Z,103801.28
2023-01-23T21:10:58.171Z,103804.69
2023-01-23T21:13:30.397Z,103794.94
2023-01-23T21:16:00.880Z,103799.09
2023-01-23T21:18:32.328Z,103805.50
2023-01-23T21:21:09.604Z,103797.00
2023-01-23T21:23:39.845Z,103804.81
2023-01-23T21:26:10.160Z,103805.22
2023-01-23T21:28:40.392Z,103744.84
2023-01-23T21:31:13.315Z,103802.50
2023-01-23T21:33:46.871Z,103805.22
2023-01-23T21:36:21.261Z,103802.63
2023-01-23T21:38:53.193Z,103806.81
2023-01-23T21:41:24.992Z,103810.22
2023-01-23T21:43:55.530Z,103808.13
2023-01-23T21:46:25.649Z,103813.59
2023-01-23T21:48:55.642Z,103811.78
2023-01-23T21:51:34.067Z,103821.31
2023-01-23T21:54:07.416Z,103815.16
2023-01-23T21:56:37.745Z,103813.34
2023-01-23T21:59:09.021Z,103815.31
2023-01-23T22:01:42.882Z,103813.72
2023-01-23T22:04:14.682Z,103815.44
2023-01-23T22:06:47.160Z,103809.31
2023-01-23T22:09:19.749Z,103816.44
2023-01-23T22:11:53.277Z,103819.19
2023-01-23T22:14:24.589Z,103824.03
2023-01-23T22:16:55.324Z,103818.16
2023-01-23T22:19:26.590Z,103822.56
2023-01-23T22:21:58.631Z,103830.41
2023-01-23T22:24:31.207Z,103837.59
2023-01-23T22:27:04.737Z,103833.41
2023-01-23T22:29:34.950Z,103827.28
2023-01-23T22:32:05.457Z,103827.38
2023-01-23T22:34:38.152Z,103832.09
2023-01-23T22:37:09.591Z,103829.59
2023-01-23T22:39:39.695Z,103837.81
2023-01-23T22:42:09.404Z,103827.16
2023-01-23T22:44:40.340Z,103832.50
2023-01-23T22:47:10.112Z,103825.84
2023-01-23T22:49:40.240Z,103824.13
2023-01-23T22:52:11.357Z,103829.47
2023-01-23T22:54:41.680Z,103820.84
2023-01-23T22:57:11.281Z,103821.88
2023-01-23T22:59:41.173Z,103820.56
2023-01-23T23:02:10.928Z,103816.13
2023-01-23T23:04:41.033Z,103818.47
2023-01-23T23:07:13.122Z,103811.31
2023-01-23T23:09:43.146Z,103823.59
2023-01-23T23:12:13.676Z,103819.16
2023-01-23T23:14:43.797Z,103821.75
2023-01-23T23:17:13.420Z,103822.56
2023-01-23T23:19:43.601Z,103831.69
2023-01-23T23:22:14.779Z,103824.66
2023-01-23T23:24:44.911Z,103824.00
2023-01-23T23:27:14.506Z,103824.91
2023-01-23T23:29:44.513Z,103821.03
2023-01-23T23:32:14.145Z,103811.50
2023-01-23T23:34:45.251Z,103798.56
2023-01-23T23:37:16.333Z,103806.13
2023-01-23T23:39:46.553Z,103803.69
2023-01-23T23:42:16.356Z,103794.03
2023-01-23T23:44:46.499Z,103786.72
2023-01-23T23:47:16.178Z,103793.25
2023-01-23T23:49:46.178Z,103795.34
2023-01-23T23:52:17.360Z,103800.56
2023-01-23T23:54:47.456Z,103791.94
2023-01-23T23:57:17.196Z,103800.44
2023-01-23T23:59:47.216Z,103797.03
